createdAt,value
2023-01-23T00:09:22.165Z,43.71
2023-01-23T00:19:29.731Z,43.61
2023-01-23T00:29:36.445Z,43.52
2023-01-23T00:39:43.925Z,43.42
2023-01-23T00:49:51.401Z,43.38
2023-01-23T00:59:58.626Z,43.31
2023-01-23T01:10:06.012Z,43.23
2023-01-23T01:20:13.716Z,43.17
2023-01-23T01:30:20.767Z,43.24
2023-01-23T01:40:27.461Z,43.14
2023-01-23T01:50:34.615Z,43.08
2023-01-23T02:00:42.122Z,43.03
2023-01-23T02:10:49.854Z,42.99
2023-01-23T02:20:56.931Z,43.02
2023-01-23T02:31:04.121Z,42.98
2023-01-23T02:41:10.945Z,42.99
2023-01-23T02:51:18.283Z,42.90
2023-01-23T03:01:25.066Z,42.87
2023-01-23T03:11:32.481Z,42.83
2023-01-23T03:21:39.894Z,42.79
2023-01-23T03:31:47.241Z,42.73
2023-01-23T03:41:54.277Z,42.73
2023-01-23T03:52:01.638Z,42.75
2023-01-23T04:02:08.613Z,42.67
2023-01-23T04:12:15.417Z,42.71
2023-01-23T04:22:22.465Z,42.74
2023-01-23T04:32:29.808Z,42.75
2023-01-23T04:42:36.445Z,42.67
2023-01-23T04:52:43.438Z,42.66
2023-01-23T05:02:50.858Z,42.62
2023-01-23T05:12:58.039Z,42.53
2023-01-23T05:23:05.742Z,42.61
2023-01-23T05:33:13.100Z,40.59
2023-01-23T05:43:19.469Z,39.30
2023-01-23T05:53:25.880Z,42.53
2023-01-23T06:03:32.965Z,44.66
2023-01-23T06:13:40.125Z,46.28
2023-01-23T06:23:46.735Z,45.60
2023-01-23T06:33:54.279Z,44.94
2023-01-23T06:44:01.002Z,44.40
2023-01-23T06:54:07.904Z,44.07
2023-01-23T07:04:14.961Z,43.62
2023-01-23T07:14:22.061Z,39.83
2023-01-23T07:24:29.527Z,39.49
2023-01-23T07:34:36.220Z,39.70
2023-01-23T07:44:43.138Z,34.72
2023-01-23T07:54:49.414Z,38.53
2023-01-23T08:04:56.437Z,40.13
2023-01-23T08:15:03.558Z,40.52
2023-01-23T08:25:10.777Z,40.19
2023-01-23T08:35:17.836Z,40.38
2023-01-23T08:45:24.505Z,40.82
2023-01-23T08:55:31.981Z,40.71
2023-01-23T09:05:38.527Z,40.23
2023-01-23T09:15:45.984Z,40.51
2023-01-23T09:25:53.375Z,40.71
2023-01-23T09:36:00.638Z,40.09
2023-01-23T09:46:08.001Z,40.23
2023-01-23T09:56:14.721Z,40.71
2023-01-23T10:06:21.675Z,41.11
2023-01-23T10:16:35.391Z,41.35
2023-01-23T10:26:41.092Z,41.46
2023-01-23T10:36:54.786Z,41.44
2023-01-23T10:46:59.908Z,41.26
2023-01-23T10:57:07.161Z,41.35
2023-01-23T11:07:16.229Z,41.54
2023-01-23T11:17:23.093Z,41.60
2023-01-23T11:27:30.267Z,42.21
2023-01-23T11:37:37.490Z,42.60
2023-01-23T11:47:44.655Z,42.18
2023-01-23T11:57:52.500Z,42.10
2023-01-23T12:07:59.508Z,42.85
2023-01-23T12:18:06.400Z,43.18
2023-01-23T12:28:13.938Z,43.38
2023-01-23T12:38:21.499Z,43.32
2023-01-23T12:48:28.640Z,43.31
2023-01-23T12:58:35.811Z,43.24
2023-01-23T13:08:57.984Z,42.63
2023-01-23T13:18:55.048Z,43.11
2023-01-23T13:29:01.762Z,43.22
2023-01-23T13:39:08.805Z,42.78
2023-01-23T13:49:16.063Z,43.22
2023-01-23T13:59:22.596Z,43.01
2023-01-23T14:09:29.933Z,42.88
2023-01-23T14:19:37.316Z,42.75
2023-01-23T14:29:44.745Z,42.71
2023-01-23T14:39:53.650Z,42.57
2023-01-23T14:50:01.116Z,42.58
2023-01-23T15:00:08.647Z,42.46
2023-01-23T15:10:15.203Z,42.56
2023-01-23T15:20:22.300Z,41.35
2023-01-23T15:30:29.395Z,42.92
2023-01-23T15:40:36.661Z,43.67
2023-01-23T15:50:44.531Z,43.98
2023-01-23T16:00:51.433Z,43.86
2023-01-23T16:10:58.817Z,43.75
2023-01-23T16:21:06.135Z,43.78
2023-01-23T16:31:12.668Z,43.77
2023-01-23T16:41:19.731Z,43.93
2023-01-23T16:51:26.853Z,43.96
2023-01-23T17:01:33.712Z,44.06
2023-01-23T17:11:40.616Z,44.09
2023-01-23T17:21:47.835Z,44.08
2023-01-23T17:31:54.821Z,43.98
2023-01-23T17:42:01.858Z,43.89
2023-01-23T17:52:08.642Z,43.68
2023-01-23T18:02:16.138Z,43.76
2023-01-23T18:12:22.875Z,45.03
2023-01-23T18:22:29.221Z,45.43
2023-01-23T18:32:36.124Z,45.28
2023-01-23T18:42:43.493Z,45.15
2023-01-23T18:52:50.181Z,44.76
2023-01-23T19:02:57.348Z,44.71
2023-01-23T19:13:04.231Z,44.64
2023-01-23T19:23:11.205Z,44.50
2023-01-23T19:33:18.266Z,44.16
2023-01-23T19:43:27.916Z,43.95
2023-01-23T19:53:35.304Z,43.92
2023-01-23T20:03:42.310Z,43.80
2023-01-23T20:13:49.433Z,43.75
2023-01-23T20:23:56.743Z,43.68
2023-01-23T20:34:03.575Z,43.64
2023-01-23T20:44:09.750Z,43.50
2023-01-23T20:54:16.637Z,43.45
2023-01-23T21:04:23.858Z,43.38
2023-01-23T21:14:30.704Z,43.30
2023-01-23T21:24:37.944Z,43.25
2023-01-23T21:34:44.872Z,43.19
2023-01-23T21:44:51.674Z,43.12
2023-01-23T21:54:59.348Z,43.00
2023-01-23T22:05:06.254Z,42.93
2023-01-23T22:15:13.685Z,42.91
2023-01-23T22:25:21.525Z,42.91
2023-01-23T22:35:28.802Z,42.86
2023-01-23T22:45:35.093Z,42.83
2023-01-23T22:55:42.173Z,42.81
2023-01-23T23:05:49.116Z,42.74
2023-01-23T23:15:55.995Z,42.68
2023-01-23T23:26:03.486Z,42.55
2023-01-23T23:36:10.298Z,42.47
2023-01-23T23:46:17.516Z,42.35
2023-01-23T23:56:24.171Z,42.23
